Time;durP1;ratioP1;P1;durP2;ratioP2;P2;SDS_P1;SDS_P2;PMS_P1;PMS_P2;Temp;Humidity;BMP_temperature;BMP_pressure;BME280_temperature;BME280_humidity;BME280_pressure;Samples;Min_cycle;Max_cycle;Signal;HPM_P1;HPM_P2
2023/01/22 00:00:25;;;;;;;;;;;;;;;19.05;41.73;100994.79;106088;1282;61234;-84
2023/01/22 00:03:14;;;;;;;;;;;;;;;19.05;41.58;100999.39;106122;1282;61259;-84
2023/01/22 00:05:43;;;;;;;;;;;;;;;19.04;41.70;101001.73;105510;1288;71551;-84
2023/01/22 00:08:08;;;;;;;;;;;;;;;19.04;41.73;101001.77;105445;1288;75779;-84
2023/01/22 00:10:35;;;;;;;;;;;;;;;19.04;41.66;101006.92;105337;1288;61397;-85
2023/01/22 00:13:00;;;;;;;;;;;;;;;19.04;41.79;101012.30;105474;1290;61241;-84
2023/01/22 00:15:52;;;;;;;;;;;;;;;19.04;41.69;101010.69;105342;1295;61584;-84
2023/01/22 00:18:18;;;;;;;;;;;;;;;19.05;41.67;101019.40;105031;1294;74670;-84
2023/01/22 00:20:50;;;;;;;;;;;;;;;19.04;41.64;101028.71;105069;1296;61341;-83
2023/01/22 00:23:21;;;;;;;;;;;;;;;19.04;41.63;101027.64;105079;1292;61767;-84
2023/01/22 00:25:46;;;;;;;;;;;;;;;19.04;41.69;101026.40;105053;1298;61323;-84
2023/01/22 00:28:12;;;;;;;;;;;;;;;19.04;41.63;101021.40;105063;1294;61381;-84
2023/01/22 00:30:38;;;;;;;;;;;;;;;19.04;41.68;101012.31;105074;1293;61264;-84
2023/01/22 00:33:03;;;;;;;;;;;;;;;19.03;41.66;101013.58;105062;1294;61380;-84
2023/01/22 00:35:29;;;;;;;;;;;;;;;19.03;41.69;101021.44;105083;1298;61236;-84
2023/01/22 00:37:58;;;;;;;;;;;;;;;19.03;41.71;101032.30;105057;1295;72338;-84
2023/01/22 00:40:23;;;;;;;;;;;;;;;19.03;41.54;101034.48;105063;1294;75078;-84
2023/01/22 00:42:49;;;;;;;;;;;;;;;19.03;41.56;101041.45;105173;1288;61233;-84
2023/01/22 00:45:14;;;;;;;;;;;;;;;19.03;41.64;101051.95;105370;1288;61467;-84
2023/01/22 00:47:40;;;;;;;;;;;;;;;19.03;41.59;101058.02;105355;1288;61372;-84
2023/01/22 00:50:05;;;;;;;;;;;;;;;19.03;41.73;101057.30;105599;1288;61212;-84
2023/01/22 00:52:32;;;;;;;;;;;;;;;19.03;41.82;101059.11;105455;1288;74428;-83
2023/01/22 00:54:58;;;;;;;;;;;;;;;19.03;41.76;101068.38;105701;1282;61256;-83
2023/01/22 00:57:25;;;;;;;;;;;;;;;19.03;41.71;101070.19;106093;1282;59294;-83
2023/01/22 00:59:52;;;;;;;;;;;;;;;19.02;41.77;101065.55;106071;1282;59943;-84
2023/01/22 01:02:17;;;;;;;;;;;;;;;19.02;41.79;101058.98;106080;1282;61558;-84
2023/01/22 01:04:43;;;;;;;;;;;;;;;19.02;41.74;101055.59;106106;1282;61216;-84
2023/01/22 01:07:08;;;;;;;;;;;;;;;19.02;41.75;101062.17;106134;1282;61273;-84
2023/01/22 01:09:34;;;;;;;;;;;;;;;19.02;41.84;101067.35;106120;1282;61285;-84
2023/01/22 01:12:00;;;;;;;;;;;;;;;19.02;41.89;101066.66;106146;1287;61233;-83
2023/01/22 01:14:26;;;;;;;;;;;;;;;19.01;41.72;101072.02;106055;1282;61134;-83
2023/01/22 01:16:53;;;;;;;;;;;;;;;19.02;41.80;101073.27;106132;1282;61161;-84
2023/01/22 01:19:19;;;;;;;;;;;;;;;19.01;41.66;101076.85;106291;1282;60986;-84
2023/01/22 01:21:46;;;;;;;;;;;;;;;19.02;41.75;101081.65;106244;1284;61118;-84
2023/01/22 01:24:11;;;;;;;;;;;;;;;19.02;41.92;101085.04;106233;1282;61335;-84
2023/01/22 01:26:38;;;;;;;;;;;;;;;19.02;41.70;101083.98;103854;1282;3166935;-84
2023/01/22 01:29:03;;;;;;;;;;;;;;;19.02;41.77;101083.06;105997;1282;61363;-84
2023/01/22 01:31:29;;;;;;;;;;;;;;;19.02;41.90;101087.55;106000;1282;61358;-84
2023/01/22 01:33:56;;;;;;;;;;;;;;;19.02;41.92;101089.48;106015;1289;72821;-84
2023/01/22 01:36:23;;;;;;;;;;;;;;;19.02;41.90;101085.94;106084;1282;60059;-84
2023/01/22 01:38:48;;;;;;;;;;;;;;;19.01;41.72;101094.33;106106;1282;61289;-83
2023/01/22 01:41:19;;;;;;;;;;;;;;;19.01;41.71;101096.67;106228;1282;61925;-83
2023/01/22 01:43:45;;;;;;;;;;;;;;;19.01;41.72;101100.23;106131;1282;72438;-84
2023/01/22 01:46:22;;;;;;;;;;;;;;;19.01;41.87;101103.45;106109;1282;61273;-84
2023/01/22 01:48:48;;;;;;;;;;;;;;;19.01;41.78;101099.02;106084;1282;61276;-84
2023/01/22 01:51:31;;;;;;;;;;;;;;;19.01;41.82;101098.27;106004;1282;61337;-84
2023/01/22 01:53:58;;;;;;;;;;;;;;;19.01;41.85;101100.96;105992;1282;72598;-83
2023/01/22 01:56:25;;;;;;;;;;;;;;;19.01;41.92;101100.27;106119;1282;74376;-84
2023/01/22 01:58:52;;;;;;;;;;;;;;;19.00;41.80;101099.04;106097;1282;61716;-85
2023/01/22 02:01:18;;;;;;;;;;;;;;;19.01;41.92;101101.89;106206;1282;61208;-84
2023/01/22 02:03:44;;;;;;;;;;;;;;;19.00;41.83;101101.36;106073;1282;61322;-83
2023/01/22 02:06:14;;;;;;;;;;;;;;;19.00;41.79;101103.52;106001;1282;61245;-83
2023/01/22 02:08:40;;;;;;;;;;;;;;;19.00;41.81;101099.59;106133;1282;61148;-84
2023/01/22 02:11:05;;;;;;;;;;;;;;;18.99;41.85;101100.68;106003;1282;61369;-84
2023/01/22 02:13:31;;;;;;;;;;;;;;;19.00;41.87;101103.53;105978;1282;61236;-84
2023/01/22 02:15:57;;;;;;;;;;;;;;;19.00;41.90;101105.85;106061;1282;61269;-84
2023/01/22 02:18:22;;;;;;;;;;;;;;;19.00;41.99;101112.09;106099;1282;61278;-84
2023/01/22 02:20:52;;;;;;;;;;;;;;;18.99;41.85;101108.90;106129;1282;61274;-84
2023/01/22 02:23:17;;;;;;;;;;;;;;;18.99;41.89;101106.76;106226;1282;61618;-84
2023/01/22 02:25:43;;;;;;;;;;;;;;;18.99;41.92;101108.55;105978;1282;61290;-84
2023/01/22 02:28:09;;;;;;;;;;;;;;;18.99;41.88;101108.75;106083;1282;61368;-84
2023/01/22 02:30:34;;;;;;;;;;;;;;;18.99;42.07;101110.17;106096;1282;61339;-84
2023/01/22 02:33:00;;;;;;;;;;;;;;;18.98;41.77;101105.75;106008;1282;61343;-84
2023/01/22 02:35:26;;;;;;;;;;;;;;;18.99;41.89;101107.86;106082;1282;61304;-83
2023/01/22 02:37:51;;;;;;;;;;;;;;;18.98;41.84;101103.96;106005;1282;60131;-83
2023/01/22 02:40:17;;;;;;;;;;;;;;;18.98;41.87;101104.52;106207;1282;61267;-83
2023/01/22 02:42:42;;;;;;;;;;;;;;;18.98;41.78;101115.57;106062;1282;61227;-85
2023/01/22 02:45:08;;;;;;;;;;;;;;;18.98;41.88;101119.15;106056;1282;61273;-84
2023/01/22 02:47:34;;;;;;;;;;;;;;;18.98;41.96;101121.48;106127;1282;61784;-84
2023/01/22 02:50:02;;;;;;;;;;;;;;;18.98;41.88;101124.33;106196;1282;73316;-84
2023/01/22 02:52:28;;;;;;;;;;;;;;;18.97;41.89;101125.25;106177;1282;74400;-84
2023/01/22 02:54:56;;;;;;;;;;;;;;;18.97;41.82;101124.17;106058;1282;61279;-84
2023/01/22 02:57:21;;;;;;;;;;;;;;;18.97;41.85;101127.56;106225;1282;61237;-84
2023/01/22 02:59:48;;;;;;;;;;;;;;;18.97;41.82;101126.69;106200;1282;61696;-84
2023/01/22 03:02:13;;;;;;;;;;;;;;;18.97;41.82;101126.35;106084;1282;61398;-84
2023/01/22 03:04:39;;;;;;;;;;;;;;;18.97;41.88;101126.72;106004;1282;61975;-84
2023/01/22 03:07:05;;;;;;;;;;;;;;;18.97;41.82;101129.37;105996;1282;61245;-84
2023/01/22 03:09:30;;;;;;;;;;;;;;;18.97;41.91;101129.20;106036;1282;61328;-84
2023/01/22 03:11:57;;;;;;;;;;;;;;;18.96;41.95;101132.09;106081;1282;73358;-83
2023/01/22 03:22:36;;;;;;;;;;;;;;;18.96;42.07;101143.34;105976;1282;71290;-84
2023/01/22 03:25:02;;;;;;;;;;;;;;;18.96;41.87;101139.58;106189;1282;61257;-84
2023/01/22 03:27:28;;;;;;;;;;;;;;;18.96;41.98;101136.75;106100;1282;61820;-83
2023/01/22 03:29:53;;;;;;;;;;;;;;;18.96;42.12;101142.30;106138;1282;61274;-83
2023/01/22 03:32:19;;;;;;;;;;;;;;;18.95;41.96;101146.05;106069;1282;61729;-83
2023/01/22 03:35:08;;;;;;;;;;;;;;;18.95;41.89;101146.61;106124;1282;61243;-83
2023/01/22 03:37:33;;;;;;;;;;;;;;;18.95;41.96;101146.40;105445;1288;61394;-83
2023/01/22 03:39:59;;;;;;;;;;;;;;;18.95;42.02;101146.95;105389;1288;61293;-83
2023/01/22 03:42:24;;;;;;;;;;;;;;;18.95;42.01;101147.33;105442;1288;61398;-83
2023/01/22 03:44:50;;;;;;;;;;;;;;;18.95;41.98;101149.09;105382;1288;61396;-83
2023/01/22 03:47:16;;;;;;;;;;;;;;;18.95;42.05;101153.89;105583;1288;61121;-85
2023/01/22 03:49:42;;;;;;;;;;;;;;;18.95;42.07;101154.98;105706;1288;61189;-84
2023/01/22 03:52:08;;;;;;;;;;;;;;;18.95;42.15;101150.54;105584;1289;61249;-84
2023/01/22 03:54:33;;;;;;;;;;;;;;;18.95;42.15;101155.19;105379;1288;61326;-83
2023/01/22 03:56:59;;;;;;;;;;;;;;;18.95;42.07;101156.06;105434;1288;61310;-84
2023/01/22 03:59:24;;;;;;;;;;;;;;;18.95;42.02;101153.59;105258;1294;61220;-84
2023/01/22 04:01:52;;;;;;;;;;;;;;;18.95;42.27;101156.58;105128;1292;61302;-84
2023/01/22 04:04:18;;;;;;;;;;;;;;;18.95;42.07;101160.32;105231;1294;61337;-84
2023/01/22 04:06:43;;;;;;;;;;;;;;;18.95;42.09;101162.84;105154;1294;59252;-84
2023/01/22 04:09:09;;;;;;;;;;;;;;;18.95;42.13;101162.50;105133;1294;61296;-84
2023/01/22 04:11:35;;;;;;;;;;;;;;;18.95;42.02;101165.52;105139;1292;59655;-84
2023/01/22 04:14:00;;;;;;;;;;;;;;;18.94;42.22;101160.38;105126;1293;61335;-83
2023/01/22 04:16:26;;;;;;;;;;;;;;;18.94;42.14;101164.13;105700;1287;61334;-83
2023/01/22 04:18:52;;;;;;;;;;;;;;;18.94;42.19;101172.52;105631;1287;73507;-83
2023/01/22 04:21:17;;;;;;;;;;;;;;;18.94;42.13;101178.23;105732;1288;61342;-83
2023/01/22 04:23:43;;;;;;;;;;;;;;;18.94;42.22;101182.16;105687;1288;61235;-83
2023/01/22 04:26:09;;;;;;;;;;;;;;;18.94;42.11;101184.13;105693;1286;60426;-84
2023/01/22 04:28:34;;;;;;;;;;;;;;;18.93;42.00;101191.64;105664;1290;60107;-84
2023/01/22 04:31:00;;;;;;;;;;;;;;;18.93;42.16;101192.02;106025;1282;61199;-84
2023/01/22 04:33:28;;;;;;;;;;;;;;;18.93;42.09;101194.85;106108;1282;74302;-84
2023/01/22 04:35:53;;;;;;;;;;;;;;;18.93;42.07;101193.27;106216;1282;61334;-84
2023/01/22 04:38:20;;;;;;;;;;;;;;;18.93;42.10;101194.70;106236;1282;61264;-84
2023/01/22 04:40:45;;;;;;;;;;;;;;;18.92;42.14;101193.29;106010;1288;61290;-84
2023/01/22 04:43:11;;;;;;;;;;;;;;;18.92;42.22;101198.28;106009;1282;61322;-85
2023/01/22 04:45:38;;;;;;;;;;;;;;;18.92;42.14;101202.20;106086;1282;61267;-84
2023/01/22 04:48:04;;;;;;;;;;;;;;;18.92;42.04;101206.33;106087;1282;61351;-84
2023/01/22 04:50:31;;;;;;;;;;;;;;;18.92;42.31;101206.49;106073;1282;61289;-83
2023/01/22 04:52:57;;;;;;;;;;;;;;;18.92;42.17;101206.32;106057;1282;61389;-84
2023/01/22 04:55:23;;;;;;;;;;;;;;;18.92;42.13;101207.05;106101;1282;61235;-84
2023/01/22 04:57:49;;;;;;;;;;;;;;;18.92;42.20;101208.11;106108;1282;60035;-84
2023/01/22 05:00:14;;;;;;;;;;;;;;;18.91;42.27;101216.36;106104;1282;61382;-84
2023/01/22 05:02:40;;;;;;;;;;;;;;;18.92;42.18;101219.54;106250;1282;72548;-84
2023/01/22 05:05:06;;;;;;;;;;;;;;;18.91;42.13;101226.16;106214;1282;61365;-83
2023/01/22 05:07:31;;;;;;;;;;;;;;;18.91;42.21;101229.75;106019;1282;61130;-83
2023/01/22 05:09:58;;;;;;;;;;;;;;;18.91;42.24;101231.73;106209;1282;61255;-83
2023/01/22 05:12:24;;;;;;;;;;;;;;;18.90;42.11;101225.68;106212;1282;61275;-84
2023/01/22 05:14:50;;;;;;;;;;;;;;;18.90;42.25;101231.75;106117;1282;61280;-84
2023/01/22 05:17:15;;;;;;;;;;;;;;;18.91;42.22;101229.40;106152;1282;61365;-84
2023/01/22 05:19:41;;;;;;;;;;;;;;;18.90;42.32;101228.17;106081;1282;61263;-84
2023/01/22 05:22:07;;;;;;;;;;;;;;;18.90;42.30;101228.21;106114;1282;61368;-84
2023/01/22 05:24:32;;;;;;;;;;;;;;;18.89;42.23;101234.47;106121;1282;61270;-84
2023/01/22 05:26:58;;;;;;;;;;;;;;;18.90;42.31;101238.57;106040;1282;61232;-84
2023/01/22 05:29:25;;;;;;;;;;;;;;;18.89;42.25;101234.30;106216;1282;61293;-84
2023/01/22 05:31:55;;;;;;;;;;;;;;;18.89;42.23;101237.15;106100;1282;61199;-84
2023/01/22 05:34:20;;;;;;;;;;;;;;;18.89;42.40;101242.88;106056;1282;74287;-84
2023/01/22 05:36:46;;;;;;;;;;;;;;;18.89;42.35;101244.84;106087;1287;60133;-84
2023/01/22 05:39:12;;;;;;;;;;;;;;;18.89;42.34;101247.34;106102;1287;61263;-84
2023/01/22 05:41:40;;;;;;;;;;;;;;;18.89;42.31;101251.83;106123;1282;60050;-84
2023/01/22 05:44:10;;;;;;;;;;;;;;;18.89;42.26;101249.67;106074;1282;61704;-84
2023/01/22 05:46:36;;;;;;;;;;;;;;;18.88;42.24;101253.61;106120;1282;74384;-84
2023/01/22 05:49:01;;;;;;;;;;;;;;;18.88;42.38;101255.75;106087;1282;61327;-84
2023/01/22 05:51:27;;;;;;;;;;;;;;;18.88;42.33;101263.23;106110;1282;61258;-85
2023/01/22 05:53:52;;;;;;;;;;;;;;;18.88;42.36;101261.65;106110;1282;61282;-84
2023/01/22 05:56:18;;;;;;;;;;;;;;;18.88;42.36;101267.71;106143;1282;61376;-84
2023/01/22 05:58:45;;;;;;;;;;;;;;;18.88;42.53;101267.52;106011;1288;74484;-85
2023/01/22 06:01:11;;;;;;;;;;;;;;;18.88;42.40;101275.20;106212;1282;61240;-84
2023/01/22 06:03:36;;;;;;;;;;;;;;;18.88;42.35;101275.02;106208;1282;61263;-84
2023/01/22 06:06:03;;;;;;;;;;;;;;;18.88;42.49;101282.54;105992;1289;61332;-84
2023/01/22 06:08:29;;;;;;;;;;;;;;;18.87;42.47;101286.82;106006;1282;61205;-83
2023/01/22 06:10:59;;;;;;;;;;;;;;;18.87;42.49;101287.38;106148;1282;61140;-84
2023/01/22 06:13:26;;;;;;;;;;;;;;;18.87;42.49;101292.70;106201;1282;61150;-84
2023/01/22 06:15:52;;;;;;;;;;;;;;;18.88;42.42;101304.64;106365;1286;71800;-84
2023/01/22 06:18:18;;;;;;;;;;;;;;;18.88;42.39;101306.08;106247;1282;61308;-84
2023/01/22 06:20:44;;;;;;;;;;;;;;;18.88;42.55;101307.85;106125;1282;61234;-84
2023/01/22 06:23:09;;;;;;;;;;;;;;;18.88;42.39;101311.60;106089;1282;61233;-84
2023/01/22 06:25:35;;;;;;;;;;;;;;;18.88;42.48;101312.66;106090;1282;61321;-85
2023/01/22 06:28:01;;;;;;;;;;;;;;;18.87;42.54;101316.60;105989;1282;61703;-84
2023/01/22 06:30:27;;;;;;;;;;;;;;;18.87;42.39;101323.73;106128;1282;61237;-84
2023/01/22 06:32:53;;;;;;;;;;;;;;;18.87;42.40;101332.83;106195;1282;61301;-84
2023/01/22 06:35:18;;;;;;;;;;;;;;;18.87;42.52;101342.99;105991;1282;61241;-85
2023/01/22 06:37:44;;;;;;;;;;;;;;;18.87;42.53;101339.80;106086;1282;61237;-84
2023/01/22 06:40:10;;;;;;;;;;;;;;;18.87;42.68;101338.55;106102;1282;61347;-84
2023/01/22 06:42:36;;;;;;;;;;;;;;;18.87;42.53;101345.85;106107;1282;61268;-84
2023/01/22 06:45:01;;;;;;;;;;;;;;;18.87;42.73;101342.66;106124;1282;60058;-84
2023/01/22 06:47:27;;;;;;;;;;;;;;;18.87;42.53;101346.42;106189;1282;61087;-84
2023/01/22 06:49:52;;;;;;;;;;;;;;;18.87;42.53;101351.77;106072;1282;61354;-84
2023/01/22 06:52:18;;;;;;;;;;;;;;;18.87;42.54;101356.40;106003;1282;61420;-83
2023/01/22 06:54:44;;;;;;;;;;;;;;;18.86;42.66;101360.88;106204;1282;61282;-84
2023/01/22 06:57:10;;;;;;;;;;;;;;;18.87;42.57;101366.93;106105;1282;61246;-84
2023/01/22 06:59:35;;;;;;;;;;;;;;;18.86;42.54;101375.85;106115;1282;61372;-84
2023/01/22 07:02:01;;;;;;;;;;;;;;;18.87;42.69;101374.42;106194;1286;72476;-84
2023/01/22 07:04:26;;;;;;;;;;;;;;;18.86;42.58;101372.13;106015;1282;61348;-84
2023/01/22 07:06:52;;;;;;;;;;;;;;;18.86;42.68;101373.55;106104;1282;61347;-84
2023/01/22 07:09:18;;;;;;;;;;;;;;;18.86;42.79;101373.38;105988;1282;61296;-84
2023/01/22 07:11:44;;;;;;;;;;;;;;;18.86;42.71;101374.98;106119;1282;61352;-84
2023/01/22 07:14:09;;;;;;;;;;;;;;;18.86;42.66;101374.63;106095;1282;61351;-84
2023/01/22 07:16:35;;;;;;;;;;;;;;;18.85;42.74;101372.88;106207;1283;75312;-84
2023/01/22 07:19:01;;;;;;;;;;;;;;;18.85;42.67;101378.05;106047;1282;61328;-84
2023/01/22 07:21:27;;;;;;;;;;;;;;;18.86;42.75;101381.79;106096;1282;61263;-84
2023/01/22 07:23:52;;;;;;;;;;;;;;;18.85;42.79;101383.92;106090;1282;61219;-85
2023/01/22 07:26:18;;;;;;;;;;;;;;;18.85;42.74;101397.67;105998;1282;61464;-84
2023/01/22 07:28:44;;;;;;;;;;;;;;;18.86;42.79;101402.11;106116;1282;61338;-84
2023/01/22 07:31:10;;;;;;;;;;;;;;;18.86;42.65;101402.65;106220;1282;61361;-84
2023/01/22 07:33:36;;;;;;;;;;;;;;;18.86;42.73;101407.98;106254;1282;61247;-84
2023/01/22 07:36:01;;;;;;;;;;;;;;;18.86;42.63;101406.58;106227;1282;60050;-84
2023/01/22 07:38:27;;;;;;;;;;;;;;;18.86;42.69;101413.88;106105;1287;61270;-84
2023/01/22 07:40:53;;;;;;;;;;;;;;;18.86;42.66;101419.75;106114;1282;61182;-84
2023/01/22 07:43:18;;;;;;;;;;;;;;;18.86;42.67;101420.12;106241;1282;61259;-84
2023/01/22 07:45:44;;;;;;;;;;;;;;;18.86;42.59;101423.69;106093;1282;61243;-84
2023/01/22 07:48:09;;;;;;;;;;;;;;;18.86;42.75;101421.36;106222;1282;61264;-85
2023/01/22 07:50:38;;;;;;;;;;;;;;;18.86;42.80;101422.61;106058;1287;61218;-85
2023/01/22 07:53:05;;;;;;;;;;;;;;;18.86;42.93;101423.86;106121;1282;61266;-84
2023/01/22 07:55:32;;;;;;;;;;;;;;;18.86;42.80;101430.10;106100;1282;61245;-84
2023/01/22 07:57:58;;;;;;;;;;;;;;;18.86;42.77;101429.94;106088;1282;72761;-84
2023/01/22 08:00:24;;;;;;;;;;;;;;;18.85;42.67;101429.06;106085;1287;61344;-84
2023/01/22 08:02:49;;;;;;;;;;;;;;;18.86;42.81;101425.80;106068;1282;61274;-84
2023/01/22 08:05:15;;;;;;;;;;;;;;;18.85;42.84;101426.20;105991;1282;60195;-84
2023/01/22 08:07:40;;;;;;;;;;;;;;;18.86;42.94;101425.48;106013;1282;61258;-85
2023/01/22 08:10:07;;;;;;;;;;;;;;;18.86;42.78;101427.06;106142;1282;61303;-84
2023/01/22 08:12:32;;;;;;;;;;;;;;;18.85;42.82;101428.16;106219;1283;74437;-84
2023/01/22 08:14:58;;;;;;;;;;;;;;;18.86;42.77;101432.25;106130;1285;61715;-84
2023/01/22 08:17:24;;;;;;;;;;;;;;;18.86;42.81;101435.82;106016;1282;61568;-84
2023/01/22 08:19:50;;;;;;;;;;;;;;;18.86;42.84;101437.96;105989;1282;61360;-84
2023/01/22 08:22:16;;;;;;;;;;;;;;;18.85;42.78;101442.80;106061;1283;61237;-84
2023/01/22 08:24:41;;;;;;;;;;;;;;;18.85;42.92;101437.27;106007;1282;61192;-84
2023/01/22 08:27:07;;;;;;;;;;;;;;;18.86;42.83;101436.17;106060;1282;59382;-84
2023/01/22 08:29:32;;;;;;;;;;;;;;;18.85;42.90;101442.98;106231;1287;61268;-84
2023/01/22 08:31:58;;;;;;;;;;;;;;;18.85;42.89;101447.60;106215;1282;61260;-84
2023/01/22 08:34:26;;;;;;;;;;;;;;;18.85;42.80;101448.16;106239;1287;60040;-84
2023/01/22 08:36:52;;;;;;;;;;;;;;;18.85;42.97;101453.67;106144;1285;61147;-85
2023/01/22 08:39:17;;;;;;;;;;;;;;;18.85;42.77;101450.13;106256;1282;59275;-85
2023/01/22 08:41:46;;;;;;;;;;;;;;;18.85;42.89;101451.58;106161;1287;73502;-84
2023/01/22 08:44:12;;;;;;;;;;;;;;;18.84;42.81;101450.34;106239;1282;61289;-85
2023/01/22 08:46:39;;;;;;;;;;;;;;;18.85;42.90;101453.86;106239;1287;61319;-86
2023/01/22 08:49:05;;;;;;;;;;;;;;;18.85;42.97;101454.78;106093;1282;61150;-85
2023/01/22 08:51:31;;;;;;;;;;;;;;;18.85;42.91;101450.85;106268;1283;61382;-84
2023/01/22 08:53:57;;;;;;;;;;;;;;;18.85;42.87;101467.63;106253;1282;61734;-84
2023/01/22 08:56:24;;;;;;;;;;;;;;;18.85;42.87;101476.34;105983;1282;61336;-85
2023/01/22 08:58:50;;;;;;;;;;;;;;;18.85;42.91;101466.02;105994;1282;61275;-84
2023/01/22 09:01:17;;;;;;;;;;;;;;;18.85;42.96;101462.46;105986;1288;61267;-84
2023/01/22 09:03:43;;;;;;;;;;;;;;;18.84;42.99;101463.55;106020;1283;61370;-84
2023/01/22 09:06:09;;;;;;;;;;;;;;;18.84;42.80;101471.05;106073;1287;61242;-84
2023/01/22 09:08:35;;;;;;;;;;;;;;;18.84;42.94;101469.08;106107;1283;61265;-84
2023/01/22 09:11:02;;;;;;;;;;;;;;;18.84;43.01;101474.27;106054;1287;61265;-84
2023/01/22 09:13:28;;;;;;;;;;;;;;;18.84;42.97;101481.77;105987;1282;61243;-84
2023/01/22 09:16:20;;;;;;;;;;;;;;;18.84;42.98;101475.52;106085;1282;61294;-84
2023/01/22 09:18:46;;;;;;;;;;;;;;;18.84;43.07;101468.91;105609;1288;60556;-84
2023/01/22 09:21:14;;;;;;;;;;;;;;;18.84;42.92;101466.42;105571;1288;73399;-84
2023/01/22 09:23:41;;;;;;;;;;;;;;;18.83;42.96;101466.07;105533;1288;61347;-84
2023/01/22 09:26:07;;;;;;;;;;;;;;;18.83;42.94;101466.27;105595;1288;61763;-85
2023/01/22 09:28:33;;;;;;;;;;;;;;;18.83;42.81;101465.02;105527;1288;61287;-84
2023/01/22 09:30:58;;;;;;;;;;;;;;;18.83;42.97;101464.67;105526;1288;61229;-85
2023/01/22 09:33:24;;;;;;;;;;;;;;;18.83;42.84;101467.69;105505;1293;61273;-85
2023/01/22 09:35:49;;;;;;;;;;;;;;;18.83;42.97;101462.89;105677;1288;61267;-85
2023/01/22 09:38:15;;;;;;;;;;;;;;;18.83;42.86;101466.83;105538;1288;61240;-84
2023/01/22 09:40:48;;;;;;;;;;;;;;;18.83;42.94;101467.67;105586;1288;61299;-84
2023/01/22 09:43:13;;;;;;;;;;;;;;;18.82;42.80;101470.41;105590;1292;73726;-84
2023/01/22 09:45:39;;;;;;;;;;;;;;;18.83;42.91;101468.79;105607;1289;61836;-84
2023/01/22 09:48:07;;;;;;;;;;;;;;;18.83;42.88;101467.71;105525;1288;60159;-84
2023/01/22 09:50:32;;;;;;;;;;;;;;;18.82;42.85;101470.59;105529;1288;61131;-84
2023/01/22 09:53:00;;;;;;;;;;;;;;;18.82;42.97;101470.25;105510;1288;61345;-84
2023/01/22 09:55:28;;;;;;;;;;;;;;;18.82;42.83;101466.14;105665;1283;61165;-84
2023/01/22 09:57:55;;;;;;;;;;;;;;;18.82;42.86;101470.60;106097;1287;61315;-84
2023/01/22 10:00:43;;;;;;;;;;;;;;;18.82;43.09;101464.20;106111;1283;61340;-84
2023/01/22 10:03:14;;;;;;;;;;;;;;;18.82;43.06;101466.86;106202;1282;72197;-85
2023/01/22 10:05:41;;;;;;;;;;;;;;;18.82;42.92;101468.09;106102;1283;75611;-84
2023/01/22 10:08:12;;;;;;;;;;;;;;;18.83;43.07;101469.70;106119;1283;61114;-84
2023/01/22 10:10:38;;;;;;;;;;;;;;;18.82;42.93;101465.60;106229;1282;61494;-84
2023/01/22 10:13:20;;;;;;;;;;;;;;;18.82;42.91;101467.56;106090;1287;61243;-84
2023/01/22 10:15:47;;;;;;;;;;;;;;;18.83;42.94;101462.91;106197;1282;74828;-84
2023/01/22 10:18:36;;;;;;;;;;;;;;;18.83;42.88;101460.40;106032;1285;60092;-84
2023/01/22 10:21:14;;;;;;;;;;;;;;;18.83;42.94;101460.04;106210;1283;61138;-85
2023/01/22 10:23:40;;;;;;;;;;;;;;;18.83;42.97;101458.44;106227;1287;72490;-84
2023/01/22 10:26:15;;;;;;;;;;;;;;;18.83;42.86;101462.72;106214;1287;61692;-84
2023/01/22 10:28:51;;;;;;;;;;;;;;;18.83;43.03;101461.28;106125;1287;61039;-84
2023/01/22 10:31:21;;;;;;;;;;;;;;;18.83;42.90;101460.58;106236;1284;61139;-84
2023/01/22 10:33:46;;;;;;;;;;;;;;;18.83;42.93;101454.52;106121;1283;72556;-84
2023/01/22 10:36:13;;;;;;;;;;;;;;;18.83;42.95;101457.73;106139;1283;61315;-84
2023/01/22 10:38:39;;;;;;;;;;;;;;;18.83;42.72;101456.49;106145;1286;61279;-84
2023/01/22 10:41:04;;;;;;;;;;;;;;;18.83;42.97;101457.71;105987;1288;61260;-84
2023/01/22 10:43:30;;;;;;;;;;;;;;;18.83;43.04;101456.09;106117;1283;61288;-85
2023/01/22 10:45:59;;;;;;;;;;;;;;;18.83;42.84;101450.95;106092;1288;61239;-84
2023/01/22 10:48:25;;;;;;;;;;;;;;;18.83;42.97;101447.91;106010;1283;61371;-84
2023/01/22 10:51:09;;;;;;;;;;;;;;;18.83;42.85;101443.63;106112;1282;60107;-85
2023/01/22 10:53:35;;;;;;;;;;;;;;;18.82;43.01;101445.46;106218;1282;74068;-85
2023/01/22 10:56:24;;;;;;;;;;;;;;;18.83;42.87;101442.75;106107;1283;61432;-84
2023/01/22 10:58:50;;;;;;;;;;;;;;;18.83;42.89;101442.22;105341;1292;61101;-85
2023/01/22 11:01:25;;;;;;;;;;;;;;;18.83;42.92;101445.07;105582;1292;61262;-85
2023/01/22 11:03:50;;;;;;;;;;;;;;;18.83;43.05;101442.56;105455;1289;72257;-84
2023/01/22 11:06:18;;;;;;;;;;;;;;;18.83;42.85;101442.55;105446;1289;61324;-84
2023/01/22 11:08:51;;;;;;;;;;;;;;;18.83;43.00;101447.38;105627;1292;61223;-85
2023/01/22 11:11:18;;;;;;;;;;;;;;;18.83;42.94;101447.55;105566;1289;61164;-84
2023/01/22 11:13:43;;;;;;;;;;;;;;;18.83;42.94;101450.22;105698;1290;59421;-84
2023/01/22 11:16:11;;;;;;;;;;;;;;;18.83;42.90;101454.67;105618;1292;61349;-84
2023/01/22 11:18:38;;;;;;;;;;;;;;;18.83;42.84;101451.10;105530;1292;61309;-84
2023/01/22 11:21:21;;;;;;;;;;;;;;;18.83;42.96;101451.27;105554;1289;61706;-84
2023/01/22 11:24:07;;;;;;;;;;;;;;;18.84;42.84;101455.91;105371;1290;73556;-84
2023/01/22 11:26:47;;;;;;;;;;;;;;;18.83;42.86;101456.11;105440;1288;74403;-84
2023/01/22 11:29:16;;;;;;;;;;;;;;;18.83;42.86;101456.64;105468;1289;61260;-83
2023/01/22 11:32:01;;;;;;;;;;;;;;;18.83;42.87;101452.90;105379;1289;61251;-84
2023/01/22 11:34:56;;;;;;;;;;;;;;;18.83;42.92;101456.67;105527;1292;72309;-83
2023/01/22 11:37:41;;;;;;;;;;;;;;;18.83;43.09;101458.44;106035;1283;74460;-83
2023/01/22 11:40:12;;;;;;;;;;;;;;;18.83;42.89;101452.19;106233;1283;61267;-83
2023/01/22 11:42:57;;;;;;;;;;;;;;;18.83;42.94;101449.38;105972;1283;61276;-84
2023/01/22 11:45:42;;;;;;;;;;;;;;;18.83;43.03;101446.33;106122;1287;73254;-83
2023/01/22 11:48:11;;;;;;;;;;;;;;;18.83;42.91;101450.07;106221;1282;74950;-84
2023/01/22 11:50:56;;;;;;;;;;;;;;;18.83;42.88;101451.66;106217;1282;61174;-83
2023/01/22 11:53:27;;;;;;;;;;;;;;;18.82;43.03;101447.96;106240;1282;61120;-84
2023/01/22 11:55:58;;;;;;;;;;;;;;;18.83;42.91;101451.66;106219;1282;72282;-85
2023/01/22 11:58:35;;;;;;;;;;;;;;;18.82;43.03;101451.15;106102;1282;74302;-85
2023/01/22 12:01:09;;;;;;;;;;;;;;;18.83;42.94;101453.65;106116;1283;61032;-85
2023/01/22 12:03:43;;;;;;;;;;;;;;;18.82;42.96;101457.23;105978;1283;61213;-85
2023/01/22 12:06:15;;;;;;;;;;;;;;;18.83;42.88;101455.61;106112;1282;72539;-84
2023/01/22 12:08:43;;;;;;;;;;;;;;;18.82;42.90;101459.02;106110;1283;74314;-84
2023/01/22 12:11:12;;;;;;;;;;;;;;;18.83;42.83;101465.23;106251;1282;61275;-83
2023/01/22 12:13:43;;;;;;;;;;;;;;;18.82;42.96;101464.17;106103;1282;61269;-85
2023/01/22 12:16:08;;;;;;;;;;;;;;;18.83;42.97;101463.98;106227;1283;72385;-85
2023/01/22 12:18:57;;;;;;;;;;;;;;;18.83;43.06;101464.68;106118;1287;61349;-85
2023/01/22 12:21:35;;;;;;;;;;;;;;;18.83;42.87;101469.50;106107;1282;61317;-85
2023/01/22 12:24:11;;;;;;;;;;;;;;;18.83;42.96;101469.67;106218;1283;61256;-85
2023/01/22 12:26:42;;;;;;;;;;;;;;;18.83;42.88;101473.95;106097;1282;72680;-86
2023/01/22 12:29:12;;;;;;;;;;;;;;;18.83;43.13;101474.33;106205;1285;74539;-85
2023/01/22 12:31:41;;;;;;;;;;;;;;;18.82;42.83;101477.02;106209;1282;61130;-85
2023/01/22 12:34:13;;;;;;;;;;;;;;;18.83;42.86;101478.42;106099;1284;61186;-85
2023/01/22 12:36:39;;;;;;;;;;;;;;;18.83;42.90;101481.09;106093;1283;72287;-85